createdAt,value
2018-12-15T00:02:15.488Z,14.63
2018-12-15T00:06:50.757Z,15.97
2018-12-15T00:11:25.659Z,18.03
2018-12-15T00:16:00.598Z,16.20
2018-12-15T00:20:35.519Z,15.50
2018-12-15T00:25:10.413Z,16.43
2018-12-15T00:29:45.326Z,16.73
2018-12-15T00:34:20.231Z,14.57
2018-12-15T00:38:55.119Z,15.57
2018-12-15T00:43:30.025Z,16.23
2018-12-15T00:48:04.946Z,17.67
2018-12-15T00:52:39.816Z,15.87
2018-12-15T00:57:14.701Z,18.20
2018-12-15T01:01:49.694Z,17.40
2018-12-15T01:06:24.610Z,17.53
2018-12-15T01:10:59.492Z,14.63
2018-12-15T01:15:39.684Z,16.07
2018-12-15T01:20:14.549Z,13.70
2018-12-15T01:24:49.862Z,17.63
2018-12-15T01:29:24.747Z,15.90
2018-12-15T01:33:59.634Z,17.17
2018-12-15T01:38:34.507Z,14.00
2018-12-15T01:43:09.408Z,14.87
2018-12-15T01:47:44.295Z,14.63
2018-12-15T01:52:19.184Z,16.07
2018-12-15T01:56:54.063Z,15.03
2018-12-15T02:01:28.975Z,16.43
2018-12-15T02:06:03.849Z,14.37
2018-12-15T02:10:38.768Z,15.13
2018-12-15T02:15:13.646Z,15.63
2018-12-15T02:19:48.801Z,15.13
2018-12-15T02:24:23.673Z,13.43
2018-12-15T02:28:58.594Z,14.63
2018-12-15T02:33:33.471Z,14.50
2018-12-15T02:38:08.368Z,14.03
2018-12-15T02:42:43.282Z,14.67
2018-12-15T02:47:18.193Z,13.73
2018-12-15T02:51:53.092Z,15.27
2018-12-15T02:56:27.966Z,14.57
2018-12-15T03:01:02.837Z,14.27
2018-12-15T03:05:37.727Z,15.57
2018-12-15T03:10:12.964Z,15.67
2018-12-15T03:14:47.852Z,13.97
2018-12-15T03:19:22.728Z,14.10
2018-12-15T03:23:57.668Z,16.57
2018-12-15T03:28:32.665Z,14.33
2018-12-15T03:33:07.547Z,14.17
2018-12-15T03:37:42.419Z,13.43
2018-12-15T03:42:17.307Z,14.57
2018-12-15T03:46:52.183Z,14.20
2018-12-15T03:51:27.091Z,15.57
2018-12-15T03:56:02.020Z,14.27
2018-12-15T04:00:36.900Z,12.47
2018-12-15T04:05:11.892Z,13.53
2018-12-15T04:09:46.791Z,12.43
2018-12-15T04:14:21.661Z,13.43
2018-12-15T04:18:56.555Z,14.37
2018-12-15T04:23:31.429Z,14.13
2018-12-15T04:28:06.358Z,12.40
2018-12-15T04:32:45.101Z,13.47
2018-12-15T04:37:18.101Z,11.87
2018-12-15T04:41:53.013Z,12.80
2018-12-15T04:46:27.897Z,11.30
2018-12-15T04:51:02.767Z,14.70
2018-12-15T04:55:38.128Z,15.43
2018-12-15T05:00:13.169Z,13.67
2018-12-15T05:04:48.127Z,13.70
2018-12-15T05:09:23.036Z,14.00
2018-12-15T05:13:58.879Z,14.87
2018-12-15T05:18:33.751Z,13.60
2018-12-15T05:23:08.639Z,12.70
2018-12-15T05:27:43.544Z,13.70
2018-12-15T05:32:18.439Z,13.00
2018-12-15T05:36:53.311Z,14.07
2018-12-15T05:41:28.391Z,13.73
2018-12-15T05:46:03.276Z,11.67
2018-12-15T05:50:38.159Z,14.37
2018-12-15T05:55:13.499Z,13.50
2018-12-15T05:59:48.387Z,12.07
2018-12-15T06:04:23.303Z,12.67
2018-12-15T06:08:58.197Z,11.93
2018-12-15T06:13:33.074Z,11.23
2018-12-15T06:18:07.972Z,10.63
2018-12-15T06:22:42.857Z,11.33
2018-12-15T06:27:17.742Z,12.93
2018-12-15T06:31:53.079Z,11.93
2018-12-15T06:36:28.012Z,10.40
2018-12-15T06:41:02.910Z,10.87
2018-12-15T06:45:37.811Z,12.33
2018-12-15T06:50:12.695Z,12.07
2018-12-15T06:54:47.596Z,10.60
2018-12-15T06:59:22.474Z,11.97
2018-12-15T07:03:57.371Z,12.53
2018-12-15T07:08:32.299Z,10.57
2018-12-15T07:13:07.187Z,9.80
2018-12-15T07:17:42.054Z,10.47
2018-12-15T07:22:16.960Z,10.53
2018-12-15T07:26:51.831Z,10.67
2018-12-15T07:31:26.735Z,10.07
2018-12-15T07:36:01.620Z,10.23
2018-12-15T07:40:36.519Z,10.57
2018-12-15T07:45:11.412Z,9.30
2018-12-15T07:49:46.322Z,10.53
2018-12-15T07:54:21.822Z,12.63
2018-12-15T07:58:57.559Z,10.33
2018-12-15T08:03:32.432Z,13.10
2018-12-15T08:08:07.352Z,11.63
2018-12-15T08:12:43.477Z,10.03
2018-12-15T08:17:18.391Z,10.77
2018-12-15T08:21:53.274Z,10.37
2018-12-15T08:26:28.339Z,10.97
2018-12-15T08:31:03.224Z,13.33
2018-12-15T08:35:38.126Z,11.13
2018-12-15T08:40:13.646Z,10.80
2018-12-15T08:44:48.572Z,10.93
2018-12-15T08:49:23.450Z,10.00
2018-12-15T08:53:58.353Z,10.13
2018-12-15T08:58:33.340Z,10.63
2018-12-15T09:03:08.557Z,11.37
2018-12-15T09:07:43.552Z,10.60
2018-12-15T09:12:18.459Z,9.93
2018-12-15T09:16:53.390Z,24.57
2018-12-15T09:21:28.428Z,10.93
2018-12-15T09:26:03.321Z,10.93
2018-12-15T09:30:38.243Z,11.50
2018-12-15T09:35:13.178Z,9.13
2018-12-15T09:39:48.109Z,11.23
2018-12-15T09:44:23.013Z,12.47
2018-12-15T09:48:57.951Z,9.33
2018-12-15T09:53:32.823Z,11.93
2018-12-15T09:58:07.804Z,8.33
2018-12-15T10:02:42.688Z,7.50
2018-12-15T10:07:17.609Z,8.40
2018-12-15T10:11:52.475Z,9.50
2018-12-15T10:16:27.364Z,9.63
2018-12-15T10:21:02.266Z,6.97
2018-12-15T10:25:38.092Z,8.23
2018-12-15T10:30:18.239Z,6.43
2018-12-15T10:34:53.140Z,6.17
2018-12-15T10:39:28.008Z,7.13
2018-12-15T10:44:02.903Z,7.77
2018-12-15T10:48:37.780Z,6.80
2018-12-15T10:53:12.754Z,7.60
2018-12-15T10:57:47.630Z,5.70
2018-12-15T11:02:22.536Z,6.17
2018-12-15T11:06:57.413Z,6.07
2018-12-15T11:11:32.299Z,6.30
2018-12-15T11:16:07.177Z,7.50
2018-12-15T11:20:42.080Z,7.77
2018-12-15T11:25:16.984Z,7.03
2018-12-15T11:29:51.871Z,6.77
2018-12-15T11:34:28.384Z,4.97
2018-12-15T11:39:06.027Z,4.63
2018-12-15T11:43:40.899Z,5.47
2018-12-15T11:48:15.807Z,5.40
2018-12-15T11:52:50.868Z,5.63
2018-12-15T11:57:25.788Z,4.70
2018-12-15T12:02:00.788Z,5.47
2018-12-15T12:06:35.755Z,4.97
2018-12-15T12:11:10.709Z,5.33
2018-12-15T12:15:45.667Z,5.43
2018-12-15T12:20:20.545Z,6.33
2018-12-15T12:24:55.443Z,5.27
2018-12-15T12:29:30.348Z,4.93
2018-12-15T12:34:05.282Z,4.67
2018-12-15T12:38:40.160Z,4.40
2018-12-15T12:43:15.045Z,4.80
2018-12-15T12:47:50.049Z,5.43
2018-12-15T12:52:24.964Z,4.93
2018-12-15T12:56:59.843Z,4.70
2018-12-15T13:01:34.771Z,5.50
2018-12-15T13:06:10.371Z,4.73
2018-12-15T13:10:45.261Z,4.03
2018-12-15T13:15:20.131Z,6.27
2018-12-15T13:19:55.033Z,5.77
2018-12-15T13:24:29.979Z,9.60
2018-12-15T13:29:04.885Z,9.87
2018-12-15T13:33:39.796Z,8.60
2018-12-15T13:38:14.728Z,11.70
2018-12-15T13:42:49.742Z,10.17
2018-12-15T13:47:24.651Z,9.60
2018-12-15T13:51:59.747Z,11.67
2018-12-15T13:56:34.650Z,9.30
2018-12-15T14:01:09.649Z,10.37
2018-12-15T14:05:44.578Z,9.43
2018-12-15T14:10:19.452Z,9.47
2018-12-15T14:14:54.332Z,11.03
2018-12-15T14:19:29.230Z,9.70
2018-12-15T14:24:04.162Z,9.83
2018-12-15T14:28:39.068Z,10.40
2018-12-15T14:33:13.962Z,10.27
2018-12-15T14:37:49.053Z,10.00
2018-12-15T14:42:23.960Z,10.10
2018-12-15T14:46:58.863Z,10.13
2018-12-15T14:51:33.768Z,10.23
2018-12-15T14:56:08.687Z,10.13
2018-12-15T15:00:43.597Z,10.13
2018-12-15T15:05:18.724Z,8.77
2018-12-15T15:09:54.396Z,8.83
2018-12-15T15:14:29.256Z,8.90
2018-12-15T15:19:04.301Z,8.47
2018-12-15T15:23:39.160Z,8.87
2018-12-15T15:28:14.048Z,11.57
2018-12-15T15:32:48.921Z,8.87
2018-12-15T15:37:23.819Z,9.30
2018-12-15T15:41:58.809Z,9.97
2018-12-15T15:46:51.771Z,9.23
2018-12-15T15:51:27.650Z,11.97
2018-12-15T15:56:02.577Z,10.33
2018-12-15T16:00:37.582Z,12.63
2018-12-15T16:05:14.015Z,10.33
2018-12-15T16:09:48.992Z,8.00
2018-12-15T16:14:23.922Z,10.73
2018-12-15T16:18:58.845Z,10.87
2018-12-15T16:23:33.767Z,11.03
2018-12-15T16:28:08.641Z,11.13
2018-12-15T16:32:44.350Z,13.13
2018-12-15T16:37:20.182Z,13.40
2018-12-15T16:41:55.090Z,12.67
2018-12-15T16:46:30.837Z,12.17
2018-12-15T16:51:05.726Z,10.87
2018-12-15T16:55:41.668Z,11.60
2018-12-15T17:00:16.583Z,13.53
2018-12-15T17:04:51.513Z,16.40
2018-12-15T17:09:26.427Z,16.73
2018-12-15T17:14:01.331Z,21.83
2018-12-15T17:18:36.331Z,14.30
2018-12-15T17:23:11.808Z,13.67
2018-12-15T17:27:46.980Z,11.70
2018-12-15T17:32:21.835Z,11.67
2018-12-15T17:36:56.760Z,13.13
2018-12-15T17:41:31.639Z,11.83
2018-12-15T17:46:06.543Z,11.97
2018-12-15T17:50:41.463Z,14.60
2018-12-15T17:55:16.367Z,13.07
2018-12-15T17:59:51.253Z,15.27
2018-12-15T18:04:26.283Z,14.90
2018-12-15T18:09:01.172Z,13.43
2018-12-15T18:13:36.096Z,12.93
2018-12-15T18:18:10.977Z,11.80
2018-12-15T18:22:45.870Z,9.80
2018-12-15T18:27:21.215Z,10.87
2018-12-15T18:31:56.115Z,10.50
2018-12-15T18:36:30.997Z,9.27
2018-12-15T18:41:06.033Z,10.33
2018-12-15T18:45:41.124Z,17.97
2018-12-15T18:50:16.273Z,13.93
2018-12-15T18:54:51.148Z,11.13
2018-12-15T18:59:26.570Z,14.67
2018-12-15T19:04:01.460Z,15.13
2018-12-15T19:08:36.352Z,10.13
2018-12-15T19:13:11.251Z,11.37
2018-12-15T19:17:46.159Z,8.33
2018-12-15T19:22:21.038Z,7.90
2018-12-15T19:26:55.946Z,8.03
2018-12-15T19:31:30.843Z,16.13
2018-12-15T19:36:06.457Z,10.37
2018-12-15T19:40:42.060Z,7.93
2018-12-15T19:45:16.947Z,6.60
2018-12-15T19:49:51.823Z,5.40
2018-12-15T19:54:27.681Z,4.80
2018-12-15T19:59:02.663Z,5.60
2018-12-15T20:03:37.576Z,5.13
2018-12-15T20:08:12.457Z,3.93
2018-12-15T20:12:47.347Z,3.40
2018-12-15T20:17:22.238Z,3.77
2018-12-15T20:21:57.128Z,4.93
2018-12-15T20:26:32.031Z,3.43
2018-12-15T20:31:06.931Z,4.10
2018-12-15T20:35:41.828Z,5.63
2018-12-15T20:40:16.734Z,4.80
2018-12-15T20:44:51.622Z,4.33
2018-12-15T20:49:26.649Z,3.57
2018-12-15T20:54:01.551Z,4.17
2018-12-15T20:58:36.472Z,3.93
2018-12-15T21:03:11.415Z,3.97
2018-12-15T21:07:46.317Z,4.73
2018-12-15T21:12:21.231Z,4.60
2018-12-15T21:16:56.168Z,2.40
2018-12-15T21:21:31.047Z,2.47
2018-12-15T21:26:05.947Z,2.90
2018-12-15T21:30:40.822Z,1.80
2018-12-15T21:35:15.746Z,1.50
2018-12-15T21:39:50.635Z,1.53
2018-12-15T21:44:25.541Z,2.07
2018-12-15T21:49:00.429Z,2.47
2018-12-15T21:53:35.466Z,1.30
2018-12-15T21:58:10.330Z,2.10
2018-12-15T22:02:45.260Z,1.60
2018-12-15T22:07:20.287Z,1.40
2018-12-15T22:11:55.188Z,2.00
2018-12-15T22:16:31.678Z,1.67
2018-12-15T22:21:06.920Z,1.30
2018-12-15T22:25:41.795Z,0.97
2018-12-15T22:30:16.704Z,1.30
2018-12-15T22:34:51.583Z,1.20
2018-12-15T22:39:26.484Z,1.43
2018-12-15T22:44:01.355Z,1.17
2018-12-15T22:48:36.271Z,1.43
2018-12-15T22:53:11.139Z,1.00
2018-12-15T22:57:46.047Z,1.20
2018-12-15T23:02:21.044Z,0.93
2018-12-15T23:06:55.922Z,2.30
2018-12-15T23:11:30.823Z,1.23
2018-12-15T23:16:05.720Z,1.27
2018-12-15T23:20:40.595Z,1.07
2018-12-15T23:25:16.127Z,0.70
2018-12-15T23:29:50.988Z,1.20
2018-12-15T23:34:25.884Z,1.10
2018-12-15T23:39:01.163Z,1.13
2018-12-15T23:43:36.056Z,0.87
2018-12-15T23:48:11.089Z,1.60
2018-12-15T23:52:46.036Z,1.67
2018-12-15T23:57:20.907Z,1.10
